Time;durP1;ratioP1;P1;durP2;ratioP2;P2;SDS_P1;SDS_P2;PMS_P1;PMS_P2;Temp;Humidity;BMP_temperature;BMP_pressure;BME280_temperature;BME280_humidity;BME280_pressure;Samples;Min_cycle;Max_cycle;Signal;HPM_P1;HPM_P2
2023/04/05 00:00:33;;;;;;;16.23;7.88;;;;;;;1.74;81.10;102356.34;4981673;28;20034;-90
2023/04/05 00:02:59;;;;;;;11.07;6.53;;;;;;;1.70;81.19;102368.03;4973985;28;20077;-90
2023/04/05 00:05:33;;;;;;;9.75;6.10;;;;;;;1.66;82.84;102376.13;4992465;28;20038;-90
2023/04/05 00:08:02;;;;;;;8.82;5.97;;;;;;;1.62;84.00;102372.56;5005109;28;20452;-90
2023/04/05 00:10:29;;;;;;;12.70;6.25;;;;;;;1.64;85.31;102380.63;4988047;28;20537;-90
2023/04/05 00:12:56;;;;;;;11.75;6.43;;;;;;;1.59;85.82;102377.09;4976719;28;20077;-90
2023/04/05 00:15:22;;;;;;;9.52;6.30;;;;;;;1.59;83.66;102383.34;4990113;28;20442;-90
2023/04/05 00:17:47;;;;;;;13.27;6.40;;;;;;;1.53;81.56;102375.34;4987156;28;20033;-90
2023/04/05 00:20:12;;;;;;;12.88;6.88;;;;;;;1.52;81.11;102378.94;5001175;28;20038;-90
2023/04/05 00:22:40;;;;;;;12.23;5.97;;;;;;;1.47;81.47;102373.63;4987790;28;20058;-90
2023/04/05 00:25:06;;;;;;;11.68;7.20;;;;;;;1.43;82.35;102373.69;4989671;28;20038;-90
2023/04/05 00:27:32;;;;;;;9.85;5.78;;;;;;;1.38;83.28;102373.72;4989242;28;20117;-90
2023/04/05 00:29:57;;;;;;;10.27;6.32;;;;;;;1.33;82.22;102367.53;5003142;28;20184;-89
2023/04/05 00:32:23;;;;;;;12.35;6.75;;;;;;;1.29;82.30;102365.78;5001510;28;20121;-90
2023/04/05 00:34:49;;;;;;;12.90;6.80;;;;;;;1.22;81.82;102364.94;4994378;28;20054;-90
2023/04/05 00:37:14;;;;;;;14.07;7.22;;;;;;;1.14;82.23;102350.72;4986458;28;20038;-90
2023/04/05 00:39:40;;;;;;;12.45;6.93;;;;;;;1.16;81.18;102362.31;4987747;28;20040;-90
2023/04/05 00:42:08;;;;;;;17.17;6.80;;;;;;;1.15;82.08;102365.00;4985216;28;20058;-90
2023/04/05 00:44:34;;;;;;;14.93;6.65;;;;;;;1.07;82.53;102358.81;4971335;28;20035;-90
2023/04/05 00:47:07;;;;;;;13.52;6.75;;;;;;;1.06;81.30;102351.69;4967709;28;20026;-90
2023/04/05 00:49:34;;;;;;;14.85;6.53;;;;;;;1.02;83.01;102348.13;4964167;28;20046;-89
2023/04/05 00:52:00;;;;;;;9.90;6.13;;;;;;;1.00;83.25;102348.16;4986324;28;20438;-90
2023/04/05 00:54:27;;;;;;;16.48;6.32;;;;;;;0.99;83.47;102348.19;4987880;28;20054;-90
2023/04/05 00:56:55;;;;;;;16.20;7.22;;;;;;;0.95;84.08;102344.63;4971837;28;20117;-89
2023/04/05 00:59:20;;;;;;;14.20;7.45;;;;;;;0.91;82.74;102350.91;4970995;28;20038;-90
2023/04/05 01:01:54;;;;;;;15.55;6.93;;;;;;;0.84;84.56;102348.28;4983819;28;20339;-90
2023/04/05 01:04:31;;;;;;;12.23;7.18;;;;;;;0.82;84.74;102359.03;5000909;28;20427;-90
2023/04/05 01:07:08;;;;;;;10.73;6.55;;;;;;;0.77;84.50;102356.38;4983000;28;20360;-90
2023/04/05 01:10:09;;;;;;;12.77;6.72;;;;;;;0.72;84.19;102360.00;4984687;28;20058;-90
2023/04/05 01:12:37;;;;;;;9.75;5.93;;;;;;;0.67;84.79;102354.69;4937693;28;20042;-90
2023/04/05 01:15:03;;;;;;;11.20;6.32;;;;;;;0.63;83.86;102354.72;4987383;28;20103;-90
2023/04/05 01:17:35;;;;;;;12.80;6.97;;;;;;;0.61;84.88;102351.19;4976960;28;20033;-90
2023/04/05 01:20:09;;;;;;;11.10;6.35;;;;;;;0.58;85.71;102353.88;4987551;28;20089;-90
2023/04/05 01:22:47;;;;;;;13.43;6.60;;;;;;;0.53;84.75;102351.22;4987955;28;20335;-90
2023/04/05 01:25:58;;;;;;;11.82;6.75;;;;;;;0.53;83.67;102343.19;4979746;28;20039;-91
2023/04/05 01:28:43;;;;;;;12.38;6.25;;;;;;;0.46;84.62;102334.28;4974841;28;20100;-91
2023/04/05 01:31:11;;;;;;;12.05;6.80;;;;;;;0.44;85.42;102333.41;4969991;28;20496;-90
2023/04/05 01:33:47;;;;;;;13.10;7.28;;;;;;;0.42;85.97;102339.66;4998135;28;20033;-90
2023/04/05 01:36:30;;;;;;;10.73;6.82;;;;;;;0.36;87.56;102331.69;4990573;28;20113;-90
2023/04/05 01:38:56;;;;;;;12.93;7.15;;;;;;;0.33;87.62;102326.38;4973949;28;20041;-91
2023/04/05 01:41:22;;;;;;;12.48;6.72;;;;;;;0.20;87.57;102314.84;5003817;28;20030;-90
2023/04/05 01:43:47;;;;;;;10.70;6.28;;;;;;;0.20;86.76;102322.88;4988465;28;20053;-91
2023/04/05 01:46:13;;;;;;;10.98;6.95;;;;;;;0.20;85.63;102328.22;4986981;28;20042;-91
2023/04/05 01:48:39;;;;;;;14.25;6.30;;;;;;;0.17;86.30;102321.09;4987444;28;20034;-91
2023/04/05 01:51:04;;;;;;;11.90;6.88;;;;;;;0.20;86.03;102329.13;4985130;28;20411;-91
2023/04/05 01:53:30;;;;;;;12.80;6.47;;;;;;;0.15;85.72;102316.66;4981858;28;20046;-90
2023/04/05 01:56:02;;;;;;;10.77;6.40;;;;;;;0.16;84.87;102322.00;4990439;28;20084;-91
2023/04/05 01:58:27;;;;;;;13.47;6.30;;;;;;;0.14;85.29;102318.47;4991330;28;20118;-91
2023/04/05 02:00:56;;;;;;;14.50;6.75;;;;;;;0.11;85.60;102320.25;4989917;28;20784;-91
2023/04/05 02:03:25;;;;;;;8.95;5.63;;;;;;;0.10;85.96;102313.13;4982480;28;20406;-91
2023/04/05 02:05:51;;;;;;;19.25;6.35;;;;;;;0.07;86.22;102310.47;4977380;28;20039;-91
2023/04/05 02:08:17;;;;;;;11.93;6.43;;;;;;;0.05;86.53;102313.16;4994425;28;20053;-91
2023/04/05 02:10:43;;;;;;;9.00;5.32;;;;;;;0.05;87.17;102314.91;4992043;28;20034;-90
2023/04/05 02:13:08;;;;;;;9.55;6.32;;;;;;;0.01;87.07;102308.72;5007526;28;20424;-91
2023/04/05 02:15:34;;;;;;;10.63;6.75;;;;;;;0.01;86.13;102314.06;4976386;28;20031;-91
2023/04/05 02:18:02;;;;;;;7.90;4.88;;;;;;;-0.04;86.41;102314.09;4976070;28;20066;-91
2023/04/05 02:20:28;;;;;;;8.90;5.85;;;;;;;-0.07;85.90;102316.75;4984454;28;20038;-90
2023/04/05 02:22:54;;;;;;;11.50;5.72;;;;;;;-0.10;86.32;102305.19;4994376;28;20539;-90
2023/04/05 02:25:21;;;;;;;9.77;5.65;;;;;;;-0.12;86.46;102310.56;4976763;28;20129;-90
2023/04/05 02:27:47;;;;;;;8.82;5.50;;;;;;;-0.19;86.61;102290.06;4993204;28;20356;-90
2023/04/05 02:30:13;;;;;;;9.23;5.50;;;;;;;-0.16;86.91;102306.09;4991893;28;20039;-90
2023/04/05 02:32:44;;;;;;;12.18;5.72;;;;;;;-0.17;86.77;102300.78;4977610;28;20031;-90
2023/04/05 02:35:10;;;;;;;13.20;6.43;;;;;;;-0.23;87.21;102303.44;5002211;28;20039;-91
2023/04/05 02:37:37;;;;;;;7.75;5.72;;;;;;;-0.24;87.11;102302.56;5003554;28;20031;-90
2023/04/05 02:40:08;;;;;;;12.15;5.65;;;;;;;-0.31;86.68;102295.50;4972113;28;20109;-89
2023/04/05 02:42:37;;;;;;;11.10;6.20;;;;;;;-0.30;87.03;102298.16;4954767;28;20070;-89
2023/04/05 02:45:02;;;;;;;11.10;5.97;;;;;;;-0.34;87.27;102290.16;4972488;28;20073;-88
2023/04/05 02:47:28;;;;;;;10.57;5.55;;;;;;;-0.36;86.75;102292.84;4998400;28;20042;-89
2023/04/05 02:49:56;;;;;;;10.82;5.90;;;;;;;-0.37;87.13;102296.41;4976371;28;20466;-89
2023/04/05 02:52:24;;;;;;;11.70;6.25;;;;;;;-0.40;88.09;102298.19;4988980;28;20038;-88
2023/04/05 02:54:49;;;;;;;11.98;5.97;;;;;;;-0.44;87.97;102302.66;4989109;28;20053;-88
2023/04/05 02:57:19;;;;;;;9.77;6.68;;;;;;;-0.49;87.61;102295.56;4973482;28;20498;-88
2023/04/05 02:59:52;;;;;;;12.18;5.82;;;;;;;-0.51;87.02;102292.91;4972813;28;20058;-88
2023/04/05 03:02:19;;;;;;;14.45;6.35;;;;;;;-0.52;87.22;102291.97;4987254;28;20045;-88
2023/04/05 03:04:45;;;;;;;9.77;5.47;;;;;;;-0.55;88.40;102285.78;4986113;28;20042;-88
2023/04/05 03:07:17;;;;;;;9.95;5.80;;;;;;;-0.60;88.04;102285.78;5001115;28;20030;-88
2023/04/05 03:09:45;;;;;;;11.43;7.30;;;;;;;-0.59;88.18;102284.00;5008235;28;20480;-88
2023/04/05 03:12:10;;;;;;;10.95;6.32;;;;;;;-0.61;89.03;102280.44;4983973;28;20509;-87
2023/04/05 03:14:40;;;;;;;10.50;6.00;;;;;;;-0.63;88.61;102287.59;4972147;28;20038;-87
2023/04/05 03:17:07;;;;;;;11.65;6.65;;;;;;;-0.68;88.37;102270.69;4987975;28;20842;-87
2023/04/05 03:19:37;;;;;;;13.40;6.32;;;;;;;-0.70;89.03;102269.78;4967057;28;20482;-87
2023/04/05 03:22:13;;;;;;;14.30;6.13;;;;;;;-0.72;88.35;102261.78;4973542;28;20039;-87
2023/04/05 03:24:41;;;;;;;13.77;6.63;;;;;;;-0.74;88.24;102268.91;4988479;28;20141;-87
2023/04/05 03:27:07;;;;;;;12.52;6.47;;;;;;;-0.78;88.41;102262.69;4990864;28;20480;-87
2023/04/05 03:29:41;;;;;;;10.02;6.03;;;;;;;-0.78;88.13;102267.16;5007086;28;20057;-87
2023/04/05 03:32:12;;;;;;;11.70;6.30;;;;;;;-0.82;88.13;102262.69;4989493;28;20116;-87
2023/04/05 03:34:44;;;;;;;13.40;6.07;;;;;;;-0.83;88.04;102261.81;4992741;28;20464;-88
2023/04/05 03:37:11;;;;;;;11.32;6.85;;;;;;;-0.85;88.74;102255.56;4987841;28;20030;-87
2023/04/05 03:39:43;;;;;;;11.80;6.32;;;;;;;-0.88;88.78;102260.06;4988357;28;20030;-87
2023/04/05 03:42:08;;;;;;;11.85;5.97;;;;;;;-0.92;89.08;102259.16;4968383;28;20042;-87
2023/04/05 03:44:34;;;;;;;14.48;6.85;;;;;;;-0.94;89.69;102257.38;4980801;28;20141;-87
2023/04/05 03:47:00;;;;;;;13.63;7.32;;;;;;;-0.96;89.72;102264.50;4970382;28;20038;-87
2023/04/05 03:49:29;;;;;;;10.57;6.03;;;;;;;-0.96;88.51;102261.84;4991183;28;20061;-87
2023/04/05 03:51:55;;;;;;;13.90;6.72;;;;;;;-0.96;88.48;102267.19;4996843;28;20120;-87
2023/04/05 03:54:21;;;;;;;13.25;7.13;;;;;;;-1.01;89.05;102261.84;5004306;28;20104;-88
2023/04/05 03:56:49;;;;;;;11.75;7.28;;;;;;;-1.03;88.54;102260.94;4971712;28;20104;-87
2023/04/05 03:59:17;;;;;;;13.98;7.00;;;;;;;-1.04;88.88;102262.72;4987293;28;20041;-88
2023/04/05 04:01:43;;;;;;;13.43;7.38;;;;;;;-1.09;89.00;102252.97;4970610;28;20370;-87
2023/04/05 04:04:09;;;;;;;17.15;7.18;;;;;;;-1.11;89.42;102252.97;4987199;28;20026;-87
2023/04/05 04:06:36;;;;;;;14.02;6.93;;;;;;;-1.14;89.68;102249.41;4988067;28;20038;-87
2023/04/05 04:09:04;;;;;;;12.10;6.43;;;;;;;-1.14;89.18;102255.63;4972223;28;20093;-88
2023/04/05 04:11:30;;;;;;;14.55;6.47;;;;;;;-1.14;90.09;102249.41;4971384;28;20545;-87
2023/04/05 04:13:55;;;;;;;13.68;6.53;;;;;;;-1.18;90.25;102245.84;4987024;28;20042;-88
2023/04/05 04:16:27;;;;;;;13.30;6.25;;;;;;;-1.21;90.72;102244.94;4970779;28;20049;-88
2023/04/05 04:19:17;;;;;;;12.52;6.78;;;;;;;-1.24;90.64;102247.66;4986899;28;20120;-88
2023/04/05 04:22:02;;;;;;;16.80;7.10;;;;;;;-1.25;90.79;102249.44;4987952;28;20049;-88
2023/04/05 04:24:48;;;;;;;10.60;6.72;;;;;;;-1.27;90.58;102253.88;4973681;28;20073;-89
2023/04/05 04:27:46;;;;;;;12.18;7.00;;;;;;;-1.30;90.63;102254.78;4982334;28;20789;-89
2023/04/05 04:30:37;;;;;;;16.23;7.22;;;;;;;-1.32;90.51;102252.97;4986718;28;20038;-89
2023/04/05 04:33:25;;;;;;;12.38;6.57;;;;;;;-1.34;90.54;102252.09;4968557;28;20046;-89
2023/04/05 04:36:12;;;;;;;13.88;7.50;;;;;;;-1.36;90.99;102254.75;4987992;28;20089;-88
2023/04/05 04:39:12;;;;;;;14.60;7.15;;;;;;;-1.40;90.60;102246.75;4967481;28;20034;-89
2023/04/05 04:41:56;;;;;;;15.82;7.60;;;;;;;-1.44;91.00;102245.88;4987279;28;20577;-89
2023/04/05 04:44:41;;;;;;;13.10;7.80;;;;;;;-1.45;91.91;102238.75;4986797;28;20034;-89
2023/04/05 04:47:25;;;;;;;12.77;7.13;;;;;;;-1.44;92.40;102250.34;4988573;28;20527;-89
2023/04/05 04:50:15;;;;;;;12.27;7.72;;;;;;;-1.48;92.15;102251.22;4987080;28;20035;-89
2023/04/05 04:52:40;;;;;;;11.82;7.30;;;;;;;-1.49;92.23;102249.44;4971073;28;20149;-89
2023/04/05 04:55:08;;;;;;;13.52;7.97;;;;;;;-1.50;91.96;102253.88;4971797;28;20562;-89
2023/04/05 04:57:33;;;;;;;12.75;7.72;;;;;;;-1.54;91.91;102246.75;4987209;28;20042;-89
2023/04/05 04:59:58;;;;;;;12.68;7.32;;;;;;;-1.50;91.98;102250.31;4986439;28;20493;-89
2023/04/05 05:02:27;;;;;;;15.63;8.18;;;;;;;-1.50;92.23;102256.53;4978748;28;20116;-89
2023/04/05 05:04:53;;;;;;;15.80;8.02;;;;;;;-1.54;92.80;102246.75;4987784;28;20050;-89
2023/04/05 05:07:19;;;;;;;13.32;7.30;;;;;;;-1.52;92.73;102247.66;4971512;28;20435;-89
2023/04/05 05:09:45;;;;;;;16.83;8.27;;;;;;;-1.52;92.66;102250.34;4987466;28;20039;-89
2023/04/05 05:12:11;;;;;;;14.98;7.18;;;;;;;-1.52;92.99;102254.78;4984282;28;20041;-89
2023/04/05 05:14:37;;;;;;;14.52;8.00;;;;;;;-1.52;93.01;102247.66;4951662;28;20471;-82
2023/04/05 05:17:04;;;;;;;14.65;8.07;;;;;;;-1.47;92.50;102250.34;4962656;28;20475;-89
2023/04/05 05:19:30;;;;;;;16.20;7.78;;;;;;;-1.42;91.85;102254.78;4992152;28;20036;-89
2023/04/05 05:21:56;;;;;;;14.35;8.30;;;;;;;-1.40;91.62;102242.34;4995604;28;20276;-89
2023/04/05 05:24:23;;;;;;;14.93;8.73;;;;;;;-1.34;91.58;102242.31;4970151;28;20456;-89
2023/04/05 05:26:49;;;;;;;20.80;9.27;;;;;;;-1.23;92.16;102239.63;4987078;28;20038;-89
2023/04/05 05:29:16;;;;;;;14.52;8.45;;;;;;;-1.06;91.29;102235.16;4973789;28;20546;-89
2023/04/05 05:31:44;;;;;;;17.25;7.75;;;;;;;-0.86;90.28;102227.09;4989595;28;20058;-89
2023/04/05 05:34:09;;;;;;;19.20;8.57;;;;;;;-0.65;89.84;102231.47;4992809;28;20439;-89
2023/04/05 05:36:37;;;;;;;14.60;7.38;;;;;;;-0.57;89.85;102220.75;4990626;28;20026;-89
2023/04/05 05:39:04;;;;;;;12.60;7.55;;;;;;;-0.48;88.73;102233.19;4991887;28;20381;-89
2023/04/05 05:41:30;;;;;;;10.73;6.55;;;;;;;-0.40;89.13;102224.22;4990740;28;20125;-89
2023/04/05 05:43:55;;;;;;;17.65;7.82;;;;;;;0.48;88.06;102236.13;4973636;28;20133;-88
2023/04/05 05:46:20;;;;;;;14.80;7.35;;;;;;;1.32;84.36;102230.81;4991063;28;20126;-89
2023/04/05 05:48:46;;;;;;;14.98;7.07;;;;;;;1.41;82.30;102234.28;4989069;28;20034;-89
2023/04/05 05:51:11;;;;;;;12.05;7.47;;;;;;;1.37;82.35;102237.91;4990474;28;20030;-90
2023/04/05 05:53:38;;;;;;;11.82;7.45;;;;;;;1.73;81.80;102231.19;4991497;28;20616;-90
2023/04/05 05:56:04;;;;;;;13.00;7.10;;;;;;;2.17;79.41;102229.63;5023329;28;20134;-89
2023/04/05 05:58:30;;;;;;;15.57;8.00;;;;;;;2.38;78.79;102241.84;4973743;28;20352;-90
2023/04/05 06:00:56;;;;;;;13.00;7.93;;;;;;;2.47;78.74;102241.72;4996514;28;20052;-90
2023/04/05 06:03:24;;;;;;;14.30;7.38;;;;;;;2.51;79.57;102238.03;4992246;28;20209;-90
2023/04/05 06:05:54;;;;;;;16.25;7.75;;;;;;;2.47;79.19;102235.41;4990528;28;20447;-90
2023/04/05 06:08:19;;;;;;;11.55;6.70;;;;;;;2.39;79.08;102238.25;4990543;28;20046;-90
2023/04/05 06:10:45;;;;;;;12.25;6.95;;;;;;;2.29;79.06;102237.50;4974086;28;20115;-90
2023/04/05 06:13:10;;;;;;;15.00;6.85;;;;;;;2.19;79.72;102243.03;4991787;28;20406;-91
2023/04/05 06:15:35;;;;;;;11.13;6.55;;;;;;;2.04;80.35;102245.03;4989747;28;20529;-90
2023/04/05 06:18:01;;;;;;;13.48;7.53;;;;;;;1.86;80.83;102239.03;4973098;28;20038;-90
2023/04/05 06:20:26;;;;;;;13.13;7.80;;;;;;;1.73;81.67;102247.28;4990335;28;20803;-91
2023/04/05 06:22:52;;;;;;;12.45;7.53;;;;;;;1.77;82.66;102249.03;4973606;28;20470;-90
2023/04/05 06:25:17;;;;;;;14.45;7.05;;;;;;;2.25;82.49;102251.91;4991482;28;20033;-91
2023/04/05 06:27:42;;;;;;;15.55;7.75;;;;;;;3.00;80.74;102236.28;4991507;28;20109;-91
2023/04/05 06:30:08;;;;;;;16.95;7.05;;;;;;;3.64;76.78;102243.09;4991599;28;20038;-91
2023/04/05 06:32:34;;;;;;;13.10;7.03;;;;;;;3.83;75.85;102239.06;4998425;28;20088;-91
2023/04/05 06:35:00;;;;;;;13.77;7.32;;;;;;;3.93;75.58;102242.44;4987884;28;20531;-91
2023/04/05 06:37:25;;;;;;;11.50;7.28;;;;;;;3.84;75.80;102243.53;4991788;28;20464;-90
2023/04/05 06:39:51;;;;;;;12.75;7.85;;;;;;;3.77;76.45;102239.19;4992577;28;20125;-91
2023/04/05 06:42:16;;;;;;;15.35;8.15;;;;;;;3.72;76.23;102238.41;4995665;28;20403;-90
2023/04/05 06:44:49;;;;;;;14.95;7.72;;;;;;;3.77;77.01;102241.00;4969564;28;20542;-90
2023/04/05 06:47:15;;;;;;;17.02;8.65;;;;;;;3.77;77.26;102236.50;4984155;28;20117;-90
2023/04/05 06:49:40;;;;;;;14.15;8.38;;;;;;;4.13;78.13;102243.78;5007634;28;20021;-90
2023/04/05 06:52:06;;;;;;;14.50;9.15;;;;;;;4.63;75.32;102242.56;5009611;28;20064;-89
2023/04/05 06:54:32;;;;;;;26.52;9.02;;;;;;;5.43;72.73;102251.22;4992386;28;20127;-89
2023/04/05 06:56:58;;;;;;;14.35;9.75;;;;;;;6.06;70.01;102236.75;5008686;28;20474;-90
2023/04/05 06:59:23;;;;;;;20.42;10.55;;;;;;;6.50;66.67;102245.25;5009319;28;20045;-89
2023/04/05 07:01:48;;;;;;;14.95;8.98;;;;;;;6.64;65.53;102246.56;4998636;28;20037;-90
2023/04/05 07:04:14;;;;;;;15.27;9.80;;;;;;;6.80;65.14;102246.91;4986146;28;20471;-89
2023/04/05 07:06:39;;;;;;;22.05;9.65;;;;;;;7.31;61.49;102246.00;4978457;28;20386;-89
2023/04/05 07:09:05;;;;;;;16.33;9.23;;;;;;;8.19;59.28;102251.69;4988962;28;20503;-89
2023/04/05 07:11:33;;;;;;;15.13;9.02;;;;;;;8.82;56.67;102241.91;4988973;28;20038;-90
2023/04/05 07:13:59;;;;;;;17.02;9.43;;;;;;;9.22;55.54;102242.84;4988286;28;20471;-89
2023/04/05 07:16:24;;;;;;;17.58;10.02;;;;;;;8.80;56.45;102243.78;4988935;28;20113;-89
2023/04/05 07:18:50;;;;;;;14.80;10.27;;;;;;;9.04;56.43;102247.25;4993200;28;20034;-88
2023/04/05 07:21:15;;;;;;;17.50;9.70;;;;;;;9.40;54.15;102243.88;5004609;28;20132;-88
2023/04/05 07:23:41;;;;;;;14.52;9.32;;;;;;;9.42;55.45;102240.16;4989167;28;20027;-88
2023/04/05 07:26:07;;;;;;;17.80;9.18;;;;;;;9.17;54.19;102253.03;5004201;28;20076;-89
2023/04/05 07:28:34;;;;;;;14.32;9.73;;;;;;;8.62;55.53;102240.00;4992479;28;20025;-89
2023/04/05 07:31:01;;;;;;;16.85;9.07;;;;;;;8.65;55.12;102247.13;4989337;28;20034;-89
2023/04/05 07:33:26;;;;;;;14.52;8.98;;;;;;;8.34;55.03;102240.22;4988015;28;20030;-89
2023/04/05 07:35:53;;;;;;;15.27;9.55;;;;;;;8.08;58.32;102244.00;4989287;28;20394;-89
2023/04/05 07:38:19;;;;;;;17.48;10.55;;;;;;;8.07;58.59;102238.66;4989683;28;20034;-89
2023/04/05 07:40:44;;;;;;;14.75;10.70;;;;;;;8.30;59.51;102233.19;4971848;28;20034;-90
2023/04/05 07:43:10;;;;;;;15.65;10.85;;;;;;;8.80;58.03;102242.88;4972074;28;20030;-89
2023/04/05 07:45:35;;;;;;;16.00;10.13;;;;;;;8.76;55.02;102231.28;4987733;28;20073;-89
2023/04/05 07:48:00;;;;;;;13.70;9.82;;;;;;;8.59;56.27;102240.16;4985104;28;20058;-88
2023/04/05 07:50:26;;;;;;;16.08;10.13;;;;;;;8.61;58.87;102243.66;4988269;28;20053;-89
2023/04/05 07:52:51;;;;;;;16.33;9.75;;;;;;;8.91;57.01;102236.06;4991410;28;20148;-89
2023/04/05 07:55:17;;;;;;;15.63;10.00;;;;;;;9.03;57.14;102241.91;4987819;28;20045;-88
2023/04/05 07:57:42;;;;;;;15.35;9.88;;;;;;;8.94;58.20;102237.75;4991265;28;20069;-89
2023/04/05 08:00:12;;;;;;;15.68;9.65;;;;;;;8.85;55.82;102230.00;4979998;28;20132;-88
2023/04/05 08:02:41;;;;;;;16.73;8.63;;;;;;;8.96;56.61;102235.88;4988698;28;20038;-89
2023/04/05 08:05:07;;;;;;;17.23;10.23;;;;;;;9.20;57.89;102239.34;4989840;28;20114;-89
2023/04/05 08:07:33;;;;;;;12.32;8.80;;;;;;;9.05;54.29;102234.59;4971304;28;20089;-89
2023/04/05 08:09:58;;;;;;;13.73;9.02;;;;;;;9.02;57.92;102223.84;5004402;28;20137;-90
2023/04/05 08:12:25;;;;;;;16.30;10.05;;;;;;;9.41;59.09;102234.75;4989581;28;20511;-89
2023/04/05 08:14:51;;;;;;;13.52;9.35;;;;;;;9.74;56.48;102232.31;4987298;28;20136;-89
2023/04/05 08:17:16;;;;;;;15.20;9.20;;;;;;;9.86;55.05;102226.31;4999263;28;20041;-89
2023/04/05 08:19:42;;;;;;;14.05;9.23;;;;;;;10.12;55.83;102237.81;5000978;28;20040;-90
2023/04/05 08:22:07;;;;;;;15.05;9.80;;;;;;;10.34;56.48;102232.22;4997479;28;20023;-90
2023/04/05 08:24:33;;;;;;;13.38;8.77;;;;;;;10.18;52.49;102232.94;4972284;28;20034;-88
2023/04/05 08:26:58;;;;;;;15.98;9.25;;;;;;;10.05;54.55;102230.88;4988808;28;20520;-89
2023/04/05 08:29:23;;;;;;;13.70;8.88;;;;;;;10.13;52.22;102234.13;4987095;28;20038;-88
2023/04/05 08:31:49;;;;;;;15.73;9.38;;;;;;;10.27;55.10;102233.50;4992023;28;20058;-88
2023/04/05 08:34:14;;;;;;;14.38;9.20;;;;;;;10.37;54.36;102232.94;4972035;28;20038;-88
2023/04/05 08:36:40;;;;;;;17.20;7.75;;;;;;;10.26;48.92;102227.19;4988097;28;20041;-87
2023/04/05 08:39:05;;;;;;;17.55;8.57;;;;;;;9.97;48.79;102239.41;4971965;28;20406;-89
2023/04/05 08:41:39;;;;;;;16.23;8.35;;;;;;;10.01;51.67;102227.44;4987629;28;20096;-89
2023/04/05 08:44:09;;;;;;;13.52;7.85;;;;;;;9.59;47.51;102220.34;4987144;28;20383;-90
2023/04/05 08:46:35;;;;;;;16.27;8.82;;;;;;;9.35;48.91;102235.03;4987410;28;20161;-90
2023/04/05 08:49:06;;;;;;;14.07;8.35;;;;;;;9.36;52.19;102223.22;4993578;28;20040;-89
2023/04/05 08:51:32;;;;;;;13.38;7.70;;;;;;;9.41;51.26;102216.63;4990335;28;20398;-89
2023/04/05 08:53:59;;;;;;;14.32;8.60;;;;;;;9.69;51.30;102228.94;5007803;28;20049;-89
2023/04/05 08:56:29;;;;;;;14.65;8.48;;;;;;;9.62;49.56;102219.31;5007333;28;20452;-89
2023/04/05 08:59:09;;;;;;;12.13;7.68;;;;;;;9.59;48.33;102233.03;5006483;28;20041;-90
2023/04/05 09:01:42;;;;;;;13.50;8.35;;;;;;;9.26;49.10;102230.03;4991165;28;20494;-89
2023/04/05 09:04:15;;;;;;;16.70;8.50;;;;;;;9.22;51.81;102225.69;5002900;28;20375;-90
2023/04/05 09:06:42;;;;;;;12.55;8.85;;;;;;;9.49;51.02;102221.72;4992219;28;20505;-88
2023/04/05 09:09:08;;;;;;;15.70;8.80;;;;;;;9.71;51.37;102210.75;4992913;28;20471;-88
2023/04/05 09:11:34;;;;;;;14.27;9.73;;;;;;;10.05;52.61;102220.88;4993680;28;20034;-89
2023/04/05 09:14:07;;;;;;;12.88;9.20;;;;;;;10.10;48.48;102220.66;5008825;28;20060;-89
2023/04/05 09:16:38;;;;;;;18.10;8.48;;;;;;;9.94;46.69;102213.25;5009773;28;20425;-90
2023/04/05 09:19:04;;;;;;;11.10;7.53;;;;;;;10.09;46.12;102210.75;4987201;28;20042;-90
2023/04/05 09:21:56;;;;;;;12.88;7.95;;;;;;;10.11;48.38;102217.88;4996582;28;20437;-89
2023/04/05 09:24:48;;;;;;;13.63;7.07;;;;;;;9.99;47.90;102212.16;5012057;28;20041;-90
2023/04/05 09:27:19;;;;;;;11.52;7.40;;;;;;;9.94;46.52;102205.09;5009694;28;20046;-88
2023/04/05 09:29:51;;;;;;;13.60;6.88;;;;;;;9.96;46.27;102210.47;4985885;28;20120;-89
2023/04/05 09:32:19;;;;;;;10.43;6.70;;;;;;;9.93;45.30;102207.88;4979629;28;20478;-89
2023/04/05 09:34:44;;;;;;;9.88;7.10;;;;;;;9.71;43.15;102208.03;4989482;28;20030;-90
2023/04/05 09:37:30;;;;;;;11.15;7.30;;;;;;;9.59;44.58;102204.03;4991642;28;20050;-90
2023/04/05 09:40:03;;;;;;;17.20;7.30;;;;;;;9.80;45.77;102204.00;4974963;28;20163;-90
2023/04/05 09:42:31;;;;;;;12.05;7.20;;;;;;;10.13;50.39;102204.22;4992098;28;20030;-89
2023/04/05 09:45:01;;;;;;;12.68;7.22;;;;;;;10.62;44.97;102205.38;4974372;28;20273;-88
2023/04/05 09:47:33;;;;;;;8.88;6.55;;;;;;;10.96;43.86;102204.53;4982002;28;20046;-90
2023/04/05 09:50:20;;;;;;;11.80;7.28;;;;;;;11.20;45.77;102199.63;5009473;28;20095;-89
2023/04/05 09:52:46;;;;;;;15.95;7.97;;;;;;;10.98;42.11;102186.28;4977483;28;20033;-88
2023/04/05 09:55:12;;;;;;;12.05;7.45;;;;;;;10.92;41.48;102200.22;4974070;28;20097;-89
2023/04/05 09:57:42;;;;;;;14.18;7.63;;;;;;;10.96;42.75;102182.75;4992050;28;20042;-87
2023/04/05 10:00:20;;;;;;;12.65;6.95;;;;;;;11.42;44.97;102195.75;4974202;28;20084;-89
2023/04/05 10:02:50;;;;;;;14.10;7.97;;;;;;;11.93;42.43;102193.84;4973026;28;20478;-89
2023/04/05 10:05:16;;;;;;;11.05;7.35;;;;;;;12.40;41.60;102188.41;4990711;28;20402;-89
2023/04/05 10:07:42;;;;;;;10.73;7.00;;;;;;;12.31;41.61;102188.03;5004547;28;20041;-90
2023/04/05 10:10:09;;;;;;;11.43;6.88;;;;;;;12.10;38.63;102184.72;5009759;28;20067;-90
2023/04/05 10:12:37;;;;;;;12.55;6.85;;;;;;;12.45;42.68;102171.72;5002670;28;20025;-90
2023/04/05 10:15:04;;;;;;;15.73;7.95;;;;;;;12.56;37.48;102187.50;4989981;28;20054;-90
2023/04/05 10:17:52;;;;;;;12.48;7.10;;;;;;;12.02;40.05;102179.69;4972610;28;20103;-90
2023/04/05 10:20:23;;;;;;;14.65;7.65;;;;;;;11.61;41.94;102173.81;5007629;28;20443;-89
2023/04/05 10:22:59;;;;;;;11.80;7.60;;;;;;;11.71;45.22;102162.31;5008863;28;20042;-90
2023/04/05 10:25:31;;;;;;;13.02;8.18;;;;;;;11.80;35.97;102182.75;4983973;28;20034;-90
2023/04/05 10:28:04;;;;;;;13.27;7.30;;;;;;;11.61;38.93;102162.91;4974119;28;20569;-90
2023/04/05 10:30:35;;;;;;;12.05;7.25;;;;;;;12.08;43.60;102159.41;4988925;28;20426;-90
2023/04/05 10:33:14;;;;;;;17.65;7.82;;;;;;;12.35;39.71;102162.34;4989627;28;20549;-89
2023/04/05 10:35:49;;;;;;;13.43;6.78;;;;;;;12.12;34.23;102169.13;4991805;28;20394;-90
2023/04/05 10:38:24;;;;;;;10.45;7.28;;;;;;;11.92;35.83;102164.81;5009034;28;20045;-90
2023/04/05 10:40:56;;;;;;;13.18;8.35;;;;;;;11.93;36.00;102161.13;5009054;28;20125;-89
2023/04/05 10:43:24;;;;;;;11.80;7.03;;;;;;;11.74;38.35;102166.72;4993361;28;20034;-90
2023/04/05 10:45:52;;;;;;;11.73;7.13;;;;;;;11.89;38.65;102159.53;4988564;28;20552;-90
2023/04/05 10:49:02;;;;;;;10.95;7.22;;;;;;;12.32;39.17;102159.81;4989440;28;20439;-89
2023/04/05 10:51:28;;;;;;;10.48;6.88;;;;;;;12.46;39.62;102165.31;4935280;29;20577;-90
2023/04/05 10:53:55;;;;;;;14.73;6.53;;;;;;;12.97;40.35;102157.69;4994715;28;20054;-88
2023/04/05 10:56:21;;;;;;;11.15;6.75;;;;;;;13.45;38.13;102147.41;4985971;28;20467;-89
2023/04/05 10:58:49;;;;;;;13.25;7.95;;;;;;;13.28;35.00;102143.00;4969232;28;20039;-89
2023/04/05 11:01:16;;;;;;;9.30;6.43;;;;;;;12.83;35.82;102144.88;4981331;28;20087;-90
2023/04/05 11:03:46;;;;;;;12.68;6.55;;;;;;;13.16;38.74;102141.03;4990047;28;20057;-88
2023/04/05 11:06:32;;;;;;;12.02;7.00;;;;;;;13.75;40.45;102128.13;4990375;28;20038;-88
2023/04/05 11:09:19;;;;;;;10.40;7.55;;;;;;;14.23;37.21;102128.63;4990635;28;20045;-89
2023/04/05 11:11:45;;;;;;;11.02;6.63;;;;;;;14.22;32.04;102133.22;4989572;28;20569;-90
2023/04/05 11:14:22;;;;;;;11.10;6.18;;;;;;;14.48;38.18;102123.25;4972098;28;20038;-89
2023/04/05 11:16:53;;;;;;;12.98;7.30;;;;;;;14.72;35.32;102122.56;4972610;28;20034;-88
2023/04/05 11:19:19;;;;;;;22.58;8.85;;;;;;;14.61;30.65;102128.78;4989654;28;20042;-89
2023/04/05 11:21:45;;;;;;;17.23;9.80;;;;;;;13.98;31.42;102118.41;4997252;28;20482;-90
2023/04/05 11:24:14;;;;;;;29.90;15.18;;;;;;;13.50;31.87;102118.81;5009689;28;20048;-88
2023/04/05 11:26:43;;;;;;;19.60;10.07;;;;;;;13.05;33.20;102128.03;4994524;28;20038;-88
2023/04/05 11:29:09;;;;;;;16.50;10.00;;;;;;;12.93;35.71;102117.88;4988368;28;20038;-88
2023/04/05 11:31:35;;;;;;;34.67;17.75;;;;;;;13.08;35.41;102124.22;4988588;28;20504;-87